sensor_id;sensor_type;location;lat;lon;timestamp;pressure;altitude;pressure_sealevel;temperature;humidity
50977;BME280;36992;48.200;12.418;2024-01-15T00:00:15;95386.72;;;0.34;51.31
50977;BME280;36992;48.200;12.418;2024-01-15T00:02:42;95384.56;;;0.31;51.33
50977;BME280;36992;48.200;12.418;2024-01-15T00:05:09;95387.22;;;0.31;51.19
50977;BME280;36992;48.200;12.418;2024-01-15T00:07:36;95387.22;;;0.31;51.40
50977;BME280;36992;48.200;12.418;2024-01-15T00:10:03;95383.00;;;0.30;51.26
50977;BME280;36992;48.200;12.418;2024-01-15T00:12:29;95382.22;;;0.30;51.25
50977;BME280;36992;48.200;12.418;2024-01-15T00:14:56;95384.84;;;0.30;50.99
50977;BME280;36992;48.200;12.418;2024-01-15T00:17:24;95385.63;;;0.30;51.46
50977;BME280;36992;48.200;12.418;2024-01-15T00:19:51;95381.41;;;0.29;51.45
50977;BME280;36992;48.200;12.418;2024-01-15T00:22:18;95374.50;;;0.28;51.59
50977;BME280;36992;48.200;12.418;2024-01-15T00:24:44;95374.50;;;0.28;51.36
50977;BME280;36992;48.200;12.418;2024-01-15T00:27:11;95373.69;;;0.28;51.31
50977;BME280;36992;48.200;12.418;2024-01-15T00:29:38;95386.94;;;0.28;51.55
50977;BME280;36992;48.200;12.418;2024-01-15T00:32:05;95384.31;;;0.28;51.49
50977;BME280;36992;48.200;12.418;2024-01-15T00:34:34;95385.63;;;0.30;51.27
50977;BME280;36992;48.200;12.418;2024-01-15T00:37:00;95392.00;;;0.29;51.34
50977;BME280;36992;48.200;12.418;2024-01-15T00:39:28;95384.06;;;0.29;51.59
50977;BME280;36992;48.200;12.418;2024-01-15T00:41:54;95389.09;;;0.31;51.35
50977;BME280;36992;48.200;12.418;2024-01-15T00:44:21;95381.16;;;0.31;51.33
50977;BME280;36992;48.200;12.418;2024-01-15T00:46:47;95385.38;;;0.32;51.30
50977;BME280;36992;48.200;12.418;2024-01-15T00:49:14;95395.72;;;0.33;51.32
50977;BME280;36992;48.200;12.418;2024-01-15T00:51:43;95395.19;;;0.36;51.39
50977;BME280;36992;48.200;12.418;2024-01-15T00:54:10;95397.59;;;0.38;51.33
50977;BME280;36992;48.200;12.418;2024-01-15T00:56:37;95396.53;;;0.39;51.22
50977;BME280;36992;48.200;12.418;2024-01-15T00:59:03;95404.22;;;0.40;51.16
50977;BME280;36992;48.200;12.418;2024-01-15T01:01:29;95398.69;;;0.42;50.94
50977;BME280;36992;48.200;12.418;2024-01-15T01:03:56;95403.69;;;0.44;51.20
50977;BME280;36992;48.200;12.418;2024-01-15T01:06:22;95403.69;;;0.44;51.04
50977;BME280;36992;48.200;12.418;2024-01-15T01:08:50;95414.84;;;0.46;50.86
50977;BME280;36992;48.200;12.418;2024-01-15T01:11:17;95417.75;;;0.44;51.06
50977;BME280;36992;48.200;12.418;2024-01-15T01:13:43;95417.75;;;0.44;51.07
50977;BME280;36992;48.200;12.418;2024-01-15T01:16:10;95423.06;;;0.44;51.28
50977;BME280;36992;48.200;12.418;2024-01-15T01:18:36;95416.94;;;0.44;52.00
50977;BME280;36992;48.200;12.418;2024-01-15T01:21:03;95430.19;;;0.44;52.49
50977;BME280;36992;48.200;12.418;2024-01-15T01:23:30;95407.97;;;0.45;52.38
50977;BME280;36992;48.200;12.418;2024-01-15T01:25:57;95409.28;;;0.42;53.33
50977;BME280;36992;48.200;12.418;2024-01-15T01:28:24;95410.88;;;0.43;53.07
50977;BME280;36992;48.200;12.418;2024-01-15T01:30:51;95414.31;;;0.38;53.75
50977;BME280;36992;48.200;12.418;2024-01-15T01:33:17;95420.41;;;0.44;53.41
50977;BME280;36992;48.200;12.418;2024-01-15T01:35:44;95414.84;;;0.46;53.79
50977;BME280;36992;48.200;12.418;2024-01-15T01:38:10;95410.63;;;0.50;53.68
50977;BME280;36992;48.200;12.418;2024-01-15T01:40:37;95418.59;;;0.55;53.56
50977;BME280;36992;48.200;12.418;2024-01-15T01:43:05;95415.97;;;0.60;53.39
50977;BME280;36992;48.200;12.418;2024-01-15T01:45:31;95421.78;;;0.62;53.30
50977;BME280;36992;48.200;12.418;2024-01-15T01:47:58;95421.81;;;0.67;53.01
50977;BME280;36992;48.200;12.418;2024-01-15T01:50:25;95428.69;;;0.69;52.98
50977;BME280;36992;48.200;12.418;2024-01-15T01:52:52;95414.69;;;0.73;52.75
50977;BME280;36992;48.200;12.418;2024-01-15T01:55:19;95418.66;;;0.81;52.66
50977;BME280;36992;48.200;12.418;2024-01-15T01:57:47;95426.13;;;0.84;52.29
50977;BME280;36992;48.200;12.418;2024-01-15T02:00:15;95420.81;;;0.89;52.33
50977;BME280;36992;48.200;12.418;2024-01-15T02:02:42;95421.34;;;0.91;52.19
50977;BME280;36992;48.200;12.418;2024-01-15T02:05:09;95426.94;;;0.95;51.91
50977;BME280;36992;48.200;12.418;2024-01-15T02:07:36;95431.44;;;0.94;51.98
50977;BME280;36992;48.200;12.418;2024-01-15T02:10:02;95419.78;;;0.96;51.76
50977;BME280;36992;48.200;12.418;2024-01-15T02:12:29;95420.03;;;0.99;51.78
50977;BME280;36992;48.200;12.418;2024-01-15T02:14:56;95419.53;;;0.97;51.45
50977;BME280;36992;48.200;12.418;2024-01-15T02:17:23;95423.50;;;0.94;51.50
50977;BME280;36992;48.200;12.418;2024-01-15T02:19:50;95430.91;;;0.98;51.46
50977;BME280;36992;48.200;12.418;2024-01-15T02:22:16;95434.66;;;1.02;51.26
50977;BME280;36992;48.200;12.418;2024-01-15T02:24:44;95428.28;;;1.03;51.34
50977;BME280;36992;48.200;12.418;2024-01-15T02:27:11;95428.53;;;1.01;51.11
50977;BME280;36992;48.200;12.418;2024-01-15T02:29:38;95430.41;;;1.01;51.05
50977;BME280;36992;48.200;12.418;2024-01-15T02:32:05;95434.09;;;1.00;51.12
50977;BME280;36992;48.200;12.418;2024-01-15T02:34:32;95435.72;;;1.01;50.99
50977;BME280;36992;48.200;12.418;2024-01-15T02:36:58;95441.78;;;1.01;51.03
50977;BME280;36992;48.200;12.418;2024-01-15T02:39:25;95444.19;;;1.03;51.09
50977;BME280;36992;48.200;12.418;2024-01-15T02:41:52;95440.47;;;1.04;50.97
50977;BME280;36992;48.200;12.418;2024-01-15T02:44:21;95440.72;;;1.02;50.90
50977;BME280;36992;48.200;12.418;2024-01-15T02:46:52;95430.66;;;0.99;51.12
50977;BME280;36992;48.200;12.418;2024-01-15T02:49:18;95428.00;;;0.99;50.76
50977;BME280;36992;48.200;12.418;2024-01-15T02:51:45;95425.88;;;0.96;50.89
50977;BME280;36992;48.200;12.418;2024-01-15T02:54:17;95430.94;;;1.03;50.95
50977;BME280;36992;48.200;12.418;2024-01-15T02:56:44;95431.72;;;0.98;51.04
50977;BME280;36992;48.200;12.418;2024-01-15T02:59:13;95435.44;;;0.97;51.01
50977;BME280;36992;48.200;12.418;2024-01-15T03:01:40;95439.41;;;0.94;51.01
50977;BME280;36992;48.200;12.418;2024-01-15T03:04:07;95432.47;;;0.93;50.86
50977;BME280;36992;48.200;12.418;2024-01-15T03:06:33;95430.13;;;0.92;50.91
50977;BME280;36992;48.200;12.418;2024-01-15T03:09:00;95419.22;;;0.93;51.10
50977;BME280;36992;48.200;12.418;2024-01-15T03:11:28;95416.59;;;0.88;51.06
50977;BME280;36992;48.200;12.418;2024-01-15T03:13:57;95424.53;;;0.93;50.98
50977;BME280;36992;48.200;12.418;2024-01-15T03:16:26;95444.16;;;0.92;50.96
50977;BME280;36992;48.200;12.418;2024-01-15T03:18:53;95452.41;;;0.91;51.05
50977;BME280;36992;48.200;12.418;2024-01-15T03:21:25;95446.81;;;0.92;50.89
50977;BME280;36992;48.200;12.418;2024-01-15T03:23:52;95454.25;;;0.90;51.00
50977;BME280;36992;48.200;12.418;2024-01-15T03:26:19;95461.94;;;0.92;50.96
50977;BME280;36992;48.200;12.418;2024-01-15T03:28:45;95452.66;;;0.94;50.95
50977;BME280;36992;48.200;12.418;2024-01-15T03:31:14;95453.16;;;0.91;50.96
50977;BME280;36992;48.200;12.418;2024-01-15T03:33:42;95459.00;;;0.93;50.73
50977;BME280;36992;48.200;12.418;2024-01-15T03:36:09;95464.31;;;0.93;50.70
50977;BME280;36992;48.200;12.418;2024-01-15T03:38:40;95464.06;;;0.95;50.71
50977;BME280;36992;48.200;12.418;2024-01-15T03:41:07;95468.56;;;0.94;50.76
50977;BME280;36992;48.200;12.418;2024-01-15T03:43:34;95459.56;;;0.96;50.85
50977;BME280;36992;48.200;12.418;2024-01-15T03:46:01;95449.47;;;0.92;50.65
50977;BME280;36992;48.200;12.418;2024-01-15T03:48:29;95457.97;;;0.94;50.59
50977;BME280;36992;48.200;12.418;2024-01-15T03:50:57;95441.53;;;0.98;50.56
50977;BME280;36992;48.200;12.418;2024-01-15T03:53:24;95437.53;;;0.95;50.85
50977;BME280;36992;48.200;12.418;2024-01-15T03:55:51;95431.97;;;0.97;50.58
50977;BME280;36992;48.200;12.418;2024-01-15T03:58:17;95438.09;;;0.97;50.36
50977;BME280;36992;48.200;12.418;2024-01-15T04:00:44;95437.81;;;0.99;50.39
50977;BME280;36992;48.200;12.418;2024-01-15T04:03:11;95442.06;;;0.94;50.14
50977;BME280;36992;48.200;12.418;2024-01-15T04:05:38;95450.00;;;1.00;50.51
50977;BME280;36992;48.200;12.418;2024-01-15T04:08:06;95445.00;;;1.03;50.23
50977;BME280;36992;48.200;12.418;2024-01-15T04:10:33;95444.19;;;1.03;50.15
50977;BME280;36992;48.200;12.418;2024-01-15T04:13:00;95443.38;;;1.02;49.88
50977;BME280;36992;48.200;12.418;2024-01-15T04:15:28;95445.25;;;1.02;49.90
50977;BME280;36992;48.200;12.418;2024-01-15T04:17:55;95460.09;;;1.03;49.86
50977;BME280;36992;48.200;12.418;2024-01-15T04:20:22;95456.38;;;1.04;49.92
50977;BME280;36992;48.200;12.418;2024-01-15T04:22:48;95462.22;;;1.06;49.80
50977;BME280;36992;48.200;12.418;2024-01-15T04:25:16;95455.88;;;1.07;50.12
50977;BME280;36992;48.200;12.418;2024-01-15T04:27:43;95447.38;;;1.05;49.74
50977;BME280;36992;48.200;12.418;2024-01-15T04:30:11;95446.84;;;1.08;49.92
50977;BME280;36992;48.200;12.418;2024-01-15T04:32:38;95451.63;;;1.11;49.97
50977;BME280;36992;48.200;12.418;2024-01-15T04:35:04;95449.25;;;1.10;49.87
50977;BME280;36992;48.200;12.418;2024-01-15T04:37:31;95454.03;;;1.13;49.95
50977;BME280;36992;48.200;12.418;2024-01-15T04:39:58;95460.13;;;1.13;50.18
50977;BME280;36992;48.200;12.418;2024-01-15T04:42:26;95451.38;;;1.18;50.38
50977;BME280;36992;48.200;12.418;2024-01-15T04:44:53;95460.94;;;1.19;50.19
50977;BME280;36992;48.200;12.418;2024-01-15T04:47:20;95452.16;;;1.18;49.90
50977;BME280;36992;48.200;12.418;2024-01-15T04:49:47;95455.38;;;1.20;50.09
50977;BME280;36992;48.200;12.418;2024-01-15T04:52:14;95450.31;;;1.19;49.97
50977;BME280;36992;48.200;12.418;2024-01-15T04:54:40;95449.00;;;1.16;50.10
50977;BME280;36992;48.200;12.418;2024-01-15T04:57:07;95438.91;;;1.18;50.11
50977;BME280;36992;48.200;12.418;2024-01-15T04:59:35;95428.84;;;1.20;49.96
50977;BME280;36992;48.200;12.418;2024-01-15T05:02:01;95420.88;;;1.20;50.02
50977;BME280;36992;48.200;12.418;2024-01-15T05:04:28;95415.03;;;1.24;50.09
50977;BME280;36992;48.200;12.418;2024-01-15T05:06:55;95420.34;;;1.24;49.98
50977;BME280;36992;48.200;12.418;2024-01-15T05:09:21;95427.78;;;1.27;50.07
50977;BME280;36992;48.200;12.418;2024-01-15T05:11:48;95426.47;;;1.29;50.24
50977;BME280;36992;48.200;12.418;2024-01-15T05:14:14;95424.06;;;1.33;50.21
50977;BME280;36992;48.200;12.418;2024-01-15T05:16:46;95438.38;;;1.37;50.06
50977;BME280;36992;48.200;12.418;2024-01-15T05:19:13;95420.63;;;1.38;50.00
50977;BME280;36992;48.200;12.418;2024-01-15T05:21:39;95443.97;;;1.41;50.13
50977;BME280;36992;48.200;12.418;2024-01-15T05:24:06;95449.00;;;1.42;50.07
50977;BME280;36992;48.200;12.418;2024-01-15T05:26:32;95460.19;;;1.44;50.20
50977;BME280;36992;48.200;12.418;2024-01-15T05:28:59;95457.25;;;1.46;50.17
50977;BME280;36992;48.200;12.418;2024-01-15T05:31:25;95453.53;;;1.47;50.15
50977;BME280;36992;48.200;12.418;2024-01-15T05:33:53;95442.38;;;1.50;50.08
50977;BME280;36992;48.200;12.418;2024-01-15T05:36:19;95446.13;;;1.49;50.07
50977;BME280;36992;48.200;12.418;2024-01-15T05:38:47;95447.69;;;1.50;50.23
50977;BME280;36992;48.200;12.418;2024-01-15T05:41:13;95452.47;;;1.53;50.09
50977;BME280;36992;48.200;12.418;2024-01-15T05:43:40;95439.47;;;1.52;49.83
50977;BME280;36992;48.200;12.418;2024-01-15T05:46:06;95432.84;;;1.54;49.95
50977;BME280;36992;48.200;12.418;2024-01-15T05:48:33;95423.56;;;1.57;50.04
50977;BME280;36992;48.200;12.418;2024-01-15T05:51:00;95421.69;;;1.57;50.04
50977;BME280;36992;48.200;12.418;2024-01-15T05:53:27;95434.69;;;1.59;50.00
50977;BME280;36992;48.200;12.418;2024-01-15T05:55:54;95440.78;;;1.59;49.97
50977;BME280;36992;48.200;12.418;2024-01-15T05:58:21;95442.41;;;1.60;50.22
50977;BME280;36992;48.200;12.418;2024-01-15T06:00:47;95440.53;;;1.61;50.17
50977;BME280;36992;48.200;12.418;2024-01-15T06:03:15;95446.38;;;1.58;50.24
50977;BME280;36992;48.200;12.418;2024-01-15T06:05:41;95447.16;;;1.64;50.36
50977;BME280;36992;48.200;12.418;2024-01-15T06:08:09;95447.97;;;1.64;50.21
50977;BME280;36992;48.200;12.418;2024-01-15T06:10:36;95434.69;;;1.64;49.89
50977;BME280;36992;48.200;12.418;2024-01-15T06:13:03;95441.59;;;1.65;50.08
50977;BME280;36992;48.200;12.418;2024-01-15T06:15:29;95442.66;;;1.64;50.08
50977;BME280;36992;48.200;12.418;2024-01-15T06:17:56;95442.66;;;1.64;50.12
50977;BME280;36992;48.200;12.418;2024-01-15T06:20:22;95432.03;;;1.64;49.83
50977;BME280;36992;48.200;12.418;2024-01-15T06:22:48;95444.00;;;1.67;49.84
50977;BME280;36992;48.200;12.418;2024-01-15T06:25:16;95458.59;;;1.69;49.79
50977;BME280;36992;48.200;12.418;2024-01-15T06:27:43;95458.06;;;1.67;50.00
50977;BME280;36992;48.200;12.418;2024-01-15T06:30:10;95460.19;;;1.70;49.97
50977;BME280;36992;48.200;12.418;2024-01-15T06:32:37;95455.13;;;1.69;49.76
50977;BME280;36992;48.200;12.418;2024-01-15T06:35:04;95457.53;;;1.70;49.90
50977;BME280;36992;48.200;12.418;2024-01-15T06:37:30;95454.06;;;1.70;49.88
50977;BME280;36992;48.200;12.418;2024-01-15T06:39:57;95453.81;;;1.71;49.89
50977;BME280;36992;48.200;12.418;2024-01-15T06:42:26;95459.38;;;1.75;49.84
50977;BME280;36992;48.200;12.418;2024-01-15T06:44:52;95463.38;;;1.72;49.77
50977;BME280;36992;48.200;12.418;2024-01-15T06:47:18;95463.09;;;1.74;49.89
50977;BME280;36992;48.200;12.418;2024-01-15T06:49:45;95463.63;;;1.76;49.72
50977;BME280;36992;48.200;12.418;2024-01-15T06:52:11;95458.06;;;1.78;49.93
50977;BME280;36992;48.200;12.418;2024-01-15T06:54:38;95453.81;;;1.77;50.01
50977;BME280;36992;48.200;12.418;2024-01-15T06:57:05;95453.53;;;1.78;49.96
50977;BME280;36992;48.200;12.418;2024-01-15T06:59:33;95458.84;;;1.78;49.99
50977;BME280;36992;48.200;12.418;2024-01-15T07:02:00;95463.38;;;1.78;49.98
50977;BME280;36992;48.200;12.418;2024-01-15T07:04:27;95458.84;;;1.78;49.96
50977;BME280;36992;48.200;12.418;2024-01-15T07:06:53;95457.81;;;1.79;50.12
50977;BME280;36992;48.200;12.418;2024-01-15T07:09:19;95452.19;;;1.81;50.15
50977;BME280;36992;48.200;12.418;2024-01-15T07:11:46;95456.72;;;1.80;50.27
50977;BME280;36992;48.200;12.418;2024-01-15T07:14:13;95452.19;;;1.81;50.42
50977;BME280;36992;48.200;12.418;2024-01-15T07:16:40;95461.50;;;1.83;50.49
50977;BME280;36992;48.200;12.418;2024-01-15T07:19:07;95453.81;;;1.82;50.87
50977;BME280;36992;48.200;12.418;2024-01-15T07:21:33;95460.72;;;1.83;50.77
50977;BME280;36992;48.200;12.418;2024-01-15T07:24:00;95456.47;;;1.82;51.01
50977;BME280;36992;48.200;12.418;2024-01-15T07:26:26;95455.41;;;1.83;50.96
50977;BME280;36992;48.200;12.418;2024-01-15T07:28:53;95458.06;;;1.83;51.07
50977;BME280;36992;48.200;12.418;2024-01-15T07:31:19;95451.69;;;1.84;51.11
50977;BME280;36992;48.200;12.418;2024-01-15T07:33:48;95449.53;;;1.86;50.93
50977;BME280;36992;48.200;12.418;2024-01-15T07:36:14;95454.84;;;1.86;50.89
50977;BME280;36992;48.200;12.418;2024-01-15T07:38:41;95453.28;;;1.85;51.14
50977;BME280;36992;48.200;12.418;2024-01-15T07:41:08;95449.28;;;1.87;51.02
50977;BME280;36992;48.200;12.418;2024-01-15T07:43:34;95444.22;;;1.86;51.31
50977;BME280;36992;48.200;12.418;2024-01-15T07:46:01;95436.25;;;1.86;51.13
50977;BME280;36992;48.200;12.418;2024-01-15T07:48:27;95449.53;;;1.86;51.30
50977;BME280;36992;48.200;12.418;2024-01-15T07:50:55;95432.53;;;1.87;51.38
50977;BME280;36992;48.200;12.418;2024-01-15T07:53:21;95429.88;;;1.87;51.23
50977;BME280;36992;48.200;12.418;2024-01-15T07:55:48;95431.50;;;1.88;51.30
50977;BME280;36992;48.200;12.418;2024-01-15T07:58:14;95433.88;;;1.89;51.09
50977;BME280;36992;48.200;12.418;2024-01-15T08:00:41;95438.41;;;1.89;51.30
50977;BME280;36992;48.200;12.418;2024-01-15T08:03:07;95437.84;;;1.87;51.66
50977;BME280;36992;48.200;12.418;2024-01-15T08:05:34;95443.72;;;1.89;51.40
50977;BME280;36992;48.200;12.418;2024-01-15T08:08:02;95441.84;;;1.89;51.61
50977;BME280;36992;48.200;12.418;2024-01-15T08:10:28;95441.06;;;1.89;51.42
50977;BME280;36992;48.200;12.418;2024-01-15T08:12:55;95434.94;;;1.88;51.51
50977;BME280;36992;48.200;12.418;2024-01-15T08:15:21;95434.69;;;1.90;51.46
50977;BME280;36992;48.200;12.418;2024-01-15T08:17:48;95438.91;;;1.86;51.67
50977;BME280;36992;48.200;12.418;2024-01-15T08:20:15;95416.34;;;1.88;51.52
50977;BME280;36992;48.200;12.418;2024-01-15T08:22:42;95413.44;;;1.90;51.49
50977;BME280;36992;48.200;12.418;2024-01-15T08:25:10;95429.38;;;1.90;51.68
50977;BME280;36992;48.200;12.418;2024-01-15T08:27:38;95427.78;;;1.89;51.60
50977;BME280;36992;48.200;12.418;2024-01-15T08:30:05;95414.22;;;1.91;51.47
50977;BME280;36992;48.200;12.418;2024-01-15T08:32:32;95418.75;;;1.90;51.47
50977;BME280;36992;48.200;12.418;2024-01-15T08:35:01;95411.84;;;1.89;51.56
50977;BME280;36992;48.200;12.418;2024-01-15T08:37:29;95415.81;;;1.92;51.46
50977;BME280;36992;48.200;12.418;2024-01-15T08:39:55;95429.63;;;1.94;51.36
50977;BME280;36992;48.200;12.418;2024-01-15T08:42:23;95433.09;;;1.94;51.44
50977;BME280;36992;48.200;12.418;2024-01-15T08:44:50;95419.50;;;1.96;51.34
50977;BME280;36992;48.200;12.418;2024-01-15T08:47:16;95422.97;;;1.96;51.59
50977;BME280;36992;48.200;12.418;2024-01-15T08:49:43;95427.22;;;1.97;51.60
50977;BME280;36992;48.200;12.418;2024-01-15T08:52:10;95420.84;;;1.98;51.59
50977;BME280;36992;48.200;12.418;2024-01-15T08:54:37;95424.81;;;2.01;51.70
50977;BME280;36992;48.200;12.418;2024-01-15T08:57:03;95421.91;;;2.02;51.66
50977;BME280;36992;48.200;12.418;2024-01-15T08:59:31;95419.00;;;2.04;51.60
50977;BME280;36992;48.200;12.418;2024-01-15T09:01:58;95413.69;;;2.04;51.74
50977;BME280;36992;48.200;12.418;2024-01-15T09:04:25;95419.78;;;2.05;51.71
50977;BME280;36992;48.200;12.418;2024-01-15T09:06:51;95420.31;;;2.07;51.79
50977;BME280;36992;48.200;12.418;2024-01-15T09:09:17;95418.19;;;2.09;51.65
50977;BME280;36992;48.200;12.418;2024-01-15T09:11:45;95412.31;;;2.12;51.71
50977;BME280;36992;48.200;12.418;2024-01-15T09:14:11;95409.66;;;2.12;51.80
50977;BME280;36992;48.200;12.418;2024-01-15T09:16:39;95422.69;;;2.13;51.90
50977;BME280;36992;48.200;12.418;2024-01-15T09:19:07;95418.16;;;2.14;51.94
50977;BME280;36992;48.200;12.418;2024-01-15T09:21:33;95422.69;;;2.13;51.85
50977;BME280;36992;48.200;12.418;2024-01-15T09:23:59;95425.06;;;2.15;51.96
50977;BME280;36992;48.200;12.418;2024-01-15T09:26:26;95421.34;;;2.16;51.80
50977;BME280;36992;48.200;12.418;2024-01-15T09:28:52;95421.09;;;2.18;52.04
50977;BME280;36992;48.200;12.418;2024-01-15T09:31:19;95428.25;;;2.17;52.30
50977;BME280;36992;48.200;12.418;2024-01-15T09:33:47;95416.28;;;2.20;52.03
50977;BME280;36992;48.200;12.418;2024-01-15T09:36:14;95412.84;;;2.19;52.46
50977;BME280;36992;48.200;12.418;2024-01-15T09:38:41;95409.13;;;2.20;52.58
50977;BME280;36992;48.200;12.418;2024-01-15T09:41:07;95406.47;;;2.20;52.53
50977;BME280;36992;48.200;12.418;2024-01-15T09:43:34;95418.41;;;2.23;52.75
50977;BME280;36992;48.200;12.418;2024-01-15T09:46:03;95409.63;;;2.22;52.75
50977;BME280;36992;48.200;12.418;2024-01-15T09:48:29;95410.44;;;2.23;52.58
50977;BME280;36992;48.200;12.418;2024-01-15T09:51:01;95404.84;;;2.24;52.70
50977;BME280;36992;48.200;12.418;2024-01-15T09:53:28;95411.22;;;2.23;52.93
50977;BME280;36992;48.200;12.418;2024-01-15T09:55:54;95408.31;;;2.25;52.95
50977;BME280;36992;48.200;12.418;2024-01-15T09:58:21;95417.84;;;2.26;52.82
50977;BME280;36992;48.200;12.418;2024-01-15T10:00:48;95408.56;;;2.28;52.68
50977;BME280;36992;48.200;12.418;2024-01-15T10:03:15;95414.69;;;2.29;52.60
50977;BME280;36992;48.200;12.418;2024-01-15T10:05:42;95401.91;;;2.31;52.75
50977;BME280;36992;48.200;12.418;2024-01-15T10:08:11;95403.75;;;2.36;52.49
50977;BME280;36992;48.200;12.418;2024-01-15T10:10:37;95398.44;;;2.36;52.25
50977;BME280;36992;48.200;12.418;2024-01-15T10:13:04;95401.63;;;2.38;52.05
50977;BME280;36992;48.200;12.418;2024-01-15T10:15:33;95394.94;;;2.40;51.60
50977;BME280;36992;48.200;12.418;2024-01-15T10:18:02;95385.38;;;2.39;51.55
50977;BME280;36992;48.200;12.418;2024-01-15T10:20:28;95383.78;;;2.43;51.38
50977;BME280;36992;48.200;12.418;2024-01-15T10:22:55;95373.97;;;2.44;51.27
50977;BME280;36992;48.200;12.418;2024-01-15T10:25:24;95376.56;;;2.49;51.06
50977;BME280;36992;48.200;12.418;2024-01-15T10:27:59;95384.28;;;2.51;51.00
50977;BME280;36992;48.200;12.418;2024-01-15T10:30:26;95376.56;;;2.49;50.67
50977;BME280;36992;48.200;12.418;2024-01-15T10:32:57;95384.00;;;2.58;51.02
50977;BME280;36992;48.200;12.418;2024-01-15T10:35:29;95382.94;;;2.59;51.06
50977;BME280;36992;48.200;12.418;2024-01-15T10:37:55;95379.47;;;2.58;51.06
50977;BME280;36992;48.200;12.418;2024-01-15T10:40:23;95381.03;;;2.64;50.79
50977;BME280;36992;48.200;12.418;2024-01-15T10:42:50;95378.38;;;2.64;50.63
50977;BME280;36992;48.200;12.418;2024-01-15T10:45:17;95373.84;;;2.65;50.68
50977;BME280;36992;48.200;12.418;2024-01-15T10:47:43;95381.81;;;2.70;50.62
50977;BME280;36992;48.200;12.418;2024-01-15T10:50:11;95381.25;;;2.73;50.84
50977;BME280;36992;48.200;12.418;2024-01-15T10:52:39;95369.00;;;2.77;50.54
50977;BME280;36992;48.200;12.418;2024-01-15T10:55:08;95358.88;;;2.79;50.77
50977;BME280;36992;48.200;12.418;2024-01-15T10:57:36;95366.34;;;2.77;50.49
50977;BME280;36992;48.200;12.418;2024-01-15T11:00:04;95346.66;;;2.78;51.03
50977;BME280;36992;48.200;12.418;2024-01-15T11:02:31;95346.88;;;2.82;50.95
50977;BME280;36992;48.200;12.418;2024-01-15T11:04:59;95343.97;;;2.83;50.83
50977;BME280;36992;48.200;12.418;2024-01-15T11:07:26;95342.38;;;2.82;51.13
50977;BME280;36992;48.200;12.418;2024-01-15T11:09:52;95342.38;;;2.82;51.47
50977;BME280;36992;48.200;12.418;2024-01-15T11:12:19;95341.31;;;2.83;51.44
50977;BME280;36992;48.200;12.418;2024-01-15T11:14:48;95342.84;;;2.90;51.40
50977;BME280;36992;48.200;12.418;2024-01-15T11:17:15;95339.66;;;2.88;51.51
50977;BME280;36992;48.200;12.418;2024-01-15T11:19:43;95333.00;;;2.90;51.35
50977;BME280;36992;48.200;12.418;2024-01-15T11:22:48;95334.84;;;2.95;51.31
50977;BME280;36992;48.200;12.418;2024-01-15T11:25:15;95342.28;;;2.93;51.25
50977;BME280;36992;48.200;12.418;2024-01-15T11:27:45;95343.88;;;2.94;51.26
50977;BME280;36992;48.200;12.418;2024-01-15T11:30:14;95336.97;;;2.93;51.08
50977;BME280;36992;48.200;12.418;2024-01-15T11:32:40;95339.63;;;2.93;51.22
50977;BME280;36992;48.200;12.418;2024-01-15T11:35:07;95340.16;;;2.95;50.90
50977;BME280;36992;48.200;12.418;2024-01-15T11:37:56;95338.00;;;2.97;50.86
50977;BME280;36992;48.200;12.418;2024-01-15T11:40:36;95326.81;;;3.00;50.92
50977;BME280;36992;48.200;12.418;2024-01-15T11:43:04;95316.72;;;2.97;50.81
50977;BME280;36992;48.200;12.418;2024-01-15T11:45:32;95326.03;;;3.00;50.79
50977;BME280;36992;48.200;12.418;2024-01-15T11:48:10;95313.22;;;3.02;50.79
50977;BME280;36992;48.200;12.418;2024-01-15T11:50:39;95312.97;;;3.03;50.76
50977;BME280;36992;48.200;12.418;2024-01-15T11:53:13;95313.47;;;3.05;50.60
50977;BME280;36992;48.200;12.418;2024-01-15T11:55:44;95306.56;;;3.04;50.38
50977;BME280;36992;48.200;12.418;2024-01-15T11:58:11;95310.53;;;3.07;50.65
50977;BME280;36992;48.200;12.418;2024-01-15T12:00:43;95324.88;;;3.11;50.66
50977;BME280;36992;48.200;12.418;2024-01-15T12:03:09;95322.50;;;3.09;50.41
50977;BME280;36992;48.200;12.418;2024-01-15T12:05:37;95317.69;;;3.12;50.73
50977;BME280;36992;48.200;12.418;2024-01-15T12:08:04;95313.94;;;3.13;50.66
50977;BME280;36992;48.200;12.418;2024-01-15T12:10:35;95311.00;;;3.14;50.32
50977;BME280;36992;48.200;12.418;2024-01-15T12:13:05;95301.41;;;3.18;50.60
50977;BME280;36992;48.200;12.418;2024-01-15T12:15:32;95311.25;;;3.18;50.21
50977;BME280;36992;48.200;12.418;2024-01-15T12:18:01;95317.09;;;3.20;50.26
50977;BME280;36992;48.200;12.418;2024-01-15T12:20:29;95312.81;;;3.19;50.15
50977;BME280;36992;48.200;12.418;2024-01-15T12:22:56;95306.72;;;3.18;50.01
50977;BME280;36992;48.200;12.418;2024-01-15T12:25:24;95303.25;;;3.18;49.39
50977;BME280;36992;48.200;12.418;2024-01-15T12:27:52;95296.63;;;3.15;49.24
50977;BME280;36992;48.200;12.418;2024-01-15T12:30:19;95296.34;;;3.17;49.42
50977;BME280;36992;48.200;12.418;2024-01-15T12:32:46;95299.00;;;3.17;49.39
50977;BME280;36992;48.200;12.418;2024-01-15T12:35:14;95295.28;;;3.18;49.33
50977;BME280;36992;48.200;12.418;2024-01-15T12:37:42;95292.09;;;3.16;49.19
50977;BME280;36992;48.200;12.418;2024-01-15T12:40:10;95289.19;;;3.17;49.01
50977;BME280;36992;48.200;12.418;2024-01-15T12:42:37;95284.94;;;3.16;48.66
50977;BME280;36992;48.200;12.418;2024-01-15T12:45:05;95280.88;;;3.19;48.82
50977;BME280;36992;48.200;12.418;2024-01-15T12:47:33;95279.31;;;3.18;49.01
50977;BME280;36992;48.200;12.418;2024-01-15T12:50:00;95270.53;;;3.17;48.64
50977;BME280;36992;48.200;12.418;2024-01-15T12:52:28;95273.22;;;3.17;48.60
50977;BME280;36992;48.200;12.418;2024-01-15T12:54:55;95267.09;;;3.17;48.81
50977;BME280;36992;48.200;12.418;2024-01-15T12:57:21;95266.00;;;3.18;48.78
50977;BME280;36992;48.200;12.418;2024-01-15T12:59:48;95270.25;;;3.19;48.88